Time;durP1;ratioP1;P1;durP2;ratioP2;P2;SDS_P1;SDS_P2;PMS_P1;PMS_P2;Temp;Humidity;BMP_temperature;BMP_pressure;BME280_temperature;BME280_humidity;BME280_pressure;Samples;Min_cycle;Max_cycle;Signal;HPM_P1;HPM_P2
2023/08/17 00:01:58;;;;;;;;;;;;;;;28.92;39.56;100610.53;5057635;28;1009;-40
2023/08/17 00:04:23;;;;;;;;;;;;;;;29.05;39.32;100604.38;5058253;28;1897;-40
2023/08/17 00:06:49;;;;;;;;;;;;;;;28.87;39.47;100590.50;5045301;28;1053;-40
2023/08/17 00:09:14;;;;;;;;;;;;;;;29.03;39.42;100616.47;5057729;28;1112;-40
2023/08/17 00:11:40;;;;;;;;;;;;;;;29.00;39.41;100616.84;5057896;28;1212;-40
2023/08/17 00:14:05;;;;;;;;;;;;;;;28.96;39.79;100619.91;5057821;28;1126;-39
2023/08/17 00:16:31;;;;;;;;;;;;;;;28.98;39.54;100617.03;5057546;28;1159;-40
2023/08/17 00:18:57;;;;;;;;;;;;;;;29.02;39.46;100614.78;5058177;28;1108;-39
2023/08/17 00:21:22;;;;;;;;;;;;;;;28.98;39.82;100621.66;5057120;28;1224;-40
2023/08/17 00:23:48;;;;;;;;;;;;;;;28.99;40.00;100624.16;5057379;28;1906;-39
2023/08/17 00:26:14;;;;;;;;;;;;;;;29.04;39.61;100623.56;5057771;28;1045;-40
2023/08/17 00:28:39;;;;;;;;;;;;;;;28.76;40.10;100622.50;5057718;28;1108;-39
2023/08/17 00:31:05;;;;;;;;;;;;;;;29.03;39.38;100619.19;5057567;28;1202;-39
2023/08/17 00:33:30;;;;;;;;;;;;;;;29.18;39.14;100627.16;5039443;28;1383;-39
2023/08/17 00:35:56;;;;;;;;;;;;;;;29.14;38.59;100625.91;5057508;28;1146;-39
2023/08/17 00:38:21;;;;;;;;;;;;;;;29.19;38.50;100632.41;5039567;28;1200;-39
2023/08/17 00:40:47;;;;;;;;;;;;;;;29.16;38.28;100637.38;5026813;28;1190;-38
2023/08/17 00:43:12;;;;;;;;;;;;;;;29.14;38.57;100629.44;5056836;28;1104;-40
2023/08/17 00:45:38;;;;;;;;;;;;;;;29.05;38.73;100622.50;5057348;28;1977;-40
2023/08/17 00:48:05;;;;;;;;;;;;;;;29.01;38.63;100634.78;5057490;28;1075;-40
2023/08/17 00:50:30;;;;;;;;;;;;;;;29.05;38.30;100634.19;5057426;28;1203;-40
2023/08/17 00:52:56;;;;;;;;;;;;;;;29.08;38.35;100625.66;5070036;28;1191;-40
2023/08/17 00:55:21;;;;;;;;;;;;;;;29.11;38.13;100627.13;5022804;28;1091;-40
2023/08/17 00:57:47;;;;;;;;;;;;;;;29.08;38.31;100630.22;5056918;28;1097;-40
2023/08/17 01:00:13;;;;;;;;;;;;;;;29.11;38.01;100631.72;5039152;28;1092;-40
2023/08/17 01:02:39;;;;;;;;;;;;;;;29.13;37.76;100630.47;5056992;28;1061;-40
2023/08/17 01:05:06;;;;;;;;;;;;;;;29.09;38.00;100629.22;5057000;28;1972;-40
2023/08/17 01:07:31;;;;;;;;;;;;;;;28.95;38.34;100626.38;5056757;28;1101;-40
2023/08/17 01:09:57;;;;;;;;;;;;;;;29.03;38.15;100619.19;5057166;28;911;-40
2023/08/17 01:12:33;;;;;;;;;;;;;;;29.07;38.33;100628.56;5057339;28;1168;-39
2023/08/17 01:15:08;;;;;;;;;;;;;;;28.97;38.35;100618.09;5022219;28;1153;-40
2023/08/17 01:17:34;;;;;;;;;;;;;;;28.96;38.35;100624.53;5057061;28;1140;-40
2023/08/17 01:20:00;;;;;;;;;;;;;;;28.96;38.26;100609.09;5038968;28;1448;-38
2023/08/17 01:22:25;;;;;;;;;;;;;;;28.66;38.88;100609.31;5038275;28;1044;-37
2023/08/17 01:24:57;;;;;;;;;;;;;;;28.66;38.97;100616.63;5038411;28;1906;-38
2023/08/17 01:27:23;;;;;;;;;;;;;;;28.66;39.07;100608.50;5023317;28;1188;-38
2023/08/17 01:29:49;;;;;;;;;;;;;;;28.70;38.54;100605.19;5056433;28;1063;-38
2023/08/17 01:32:36;;;;;;;;;;;;;;;28.64;39.01;100605.13;5056332;28;1044;-38
2023/08/17 01:35:23;;;;;;;;;;;;;;;28.60;39.09;100597.41;5038461;28;1253;-38
2023/08/17 01:37:49;;;;;;;;;;;;;;;28.62;38.96;100605.34;5046707;28;1298;-38
2023/08/17 01:40:15;;;;;;;;;;;;;;;28.66;39.19;100601.19;5038897;28;1180;-38
2023/08/17 01:42:41;;;;;;;;;;;;;;;28.67;38.91;100602.03;5038639;28;1107;-38
2023/08/17 01:45:07;;;;;;;;;;;;;;;28.67;38.73;100592.06;5037759;28;1955;-38
2023/08/17 01:47:32;;;;;;;;;;;;;;;28.65;38.71;100594.13;5056544;28;1128;-38
2023/08/17 01:49:59;;;;;;;;;;;;;;;28.64;39.14;100599.72;5056511;28;1116;-38
2023/08/17 01:52:28;;;;;;;;;;;;;;;28.66;38.74;100603.06;5055959;28;1230;-38
2023/08/17 01:54:54;;;;;;;;;;;;;;;28.65;38.80;100604.94;5056087;28;1140;-38
2023/08/17 01:57:19;;;;;;;;;;;;;;;28.56;38.75;100588.00;5037685;28;1225;-38
2023/08/17 01:59:45;;;;;;;;;;;;;;;28.61;38.96;100592.84;5038522;28;1571;-38
2023/08/17 02:02:11;;;;;;;;;;;;;;;28.64;38.92;100592.44;5038113;28;1152;-38
2023/08/17 02:04:37;;;;;;;;;;;;;;;28.57;39.32;100592.41;5055900;28;1902;-38
2023/08/17 02:07:03;;;;;;;;;;;;;;;28.58;38.77;100591.34;5047199;28;1160;-38
2023/08/17 02:09:28;;;;;;;;;;;;;;;28.01;38.82;100502.03;5060215;28;1048;-38
2023/08/17 02:11:54;;;;;;;;;;;;;;;28.62;38.74;100596.38;5038222;28;1253;-38
2023/08/17 02:14:19;;;;;;;;;;;;;;;28.60;38.92;100593.88;5037988;28;1298;-38
2023/08/17 02:16:45;;;;;;;;;;;;;;;28.58;38.46;100591.34;5055833;28;1063;-38
2023/08/17 02:19:11;;;;;;;;;;;;;;;28.62;38.90;100597.22;5051532;28;1228;-38
2023/08/17 02:21:36;;;;;;;;;;;;;;;28.60;38.78;100589.28;5055311;28;1227;-38
2023/08/17 02:24:02;;;;;;;;;;;;;;;28.54;38.89;100589.25;5055912;28;1883;-38
2023/08/17 02:26:29;;;;;;;;;;;;;;;28.52;39.43;100584.03;5055761;28;1119;-37
2023/08/17 02:28:55;;;;;;;;;;;;;;;28.64;38.62;100578.91;5055499;28;1036;-38
2023/08/17 02:31:22;;;;;;;;;;;;;;;28.62;39.20;100589.09;5038117;28;1341;-38
2023/08/17 02:33:48;;;;;;;;;;;;;;;28.59;39.04;100582.19;5055622;28;1138;-38
2023/08/17 02:36:14;;;;;;;;;;;;;;;28.64;39.02;100586.19;5055375;28;1024;-38
2023/08/17 02:38:39;;;;;;;;;;;;;;;28.64;39.00;100586.19;5055959;28;1072;-38
2023/08/17 02:41:05;;;;;;;;;;;;;;;28.60;38.76;100583.03;5055808;28;1147;-39
2023/08/17 02:43:30;;;;;;;;;;;;;;;28.64;38.98;100584.34;5037636;28;2003;-38
2023/08/17 02:45:56;;;;;;;;;;;;;;;28.62;38.88;100588.25;5055523;28;1117;-39
2023/08/17 02:48:22;;;;;;;;;;;;;;;28.60;38.79;100585.75;5055369;28;1204;-38
2023/08/17 02:50:47;;;;;;;;;;;;;;;28.59;39.42;100589.50;5055243;28;1135;-39
2023/08/17 02:53:13;;;;;;;;;;;;;;;28.57;39.01;100584.28;5037581;28;1060;-38
2023/08/17 02:55:38;;;;;;;;;;;;;;;28.59;38.73;100595.72;5055791;28;1175;-38
2023/08/17 02:58:04;;;;;;;;;;;;;;;28.64;39.12;100589.75;5055016;28;1114;-38
2023/08/17 03:00:29;;;;;;;;;;;;;;;28.57;38.86;100584.28;5055710;28;1208;-38
2023/08/17 03:02:56;;;;;;;;;;;;;;;28.65;38.86;100583.28;5037804;28;1259;-38
2023/08/17 03:05:22;;;;;;;;;;;;;;;28.67;38.97;100591.22;5037561;28;1913;-38
2023/08/17 03:07:47;;;;;;;;;;;;;;;28.58;38.98;100588.66;5054959;28;1052;-38
2023/08/17 03:10:13;;;;;;;;;;;;;;;28.60;38.97;100586.59;5055547;28;1047;-38
2023/08/17 03:12:38;;;;;;;;;;;;;;;28.66;39.09;100587.66;5055231;28;1032;-38
2023/08/17 03:15:05;;;;;;;;;;;;;;;28.77;38.81;100582.72;5055734;28;1132;-37
2023/08/17 03:17:30;;;;;;;;;;;;;;;28.32;39.82;100575.72;5055239;28;1071;-35
2023/08/17 03:19:59;;;;;;;;;;;;;;;28.40;38.90;100578.31;5055249;28;1120;-35
2023/08/17 03:22:24;;;;;;;;;;;;;;;28.33;39.11;100577.41;5037138;28;1204;-35
2023/08/17 03:24:50;;;;;;;;;;;;;;;28.35;39.36;100587.03;5037132;28;1961;-34
2023/08/17 03:27:15;;;;;;;;;;;;;;;28.24;39.25;100577.53;5037099;28;1136;-34
2023/08/17 03:29:41;;;;;;;;;;;;;;;28.42;39.27;100588.94;5037962;28;1319;-34
2023/08/17 03:32:07;;;;;;;;;;;;;;;28.32;39.89;100589.25;5058965;28;1245;-35
2023/08/17 03:34:32;;;;;;;;;;;;;;;28.16;40.72;100588.47;5040875;28;1187;-35
2023/08/17 03:37:00;;;;;;;;;;;;;;;28.45;39.22;100592.09;5040724;28;1355;-35
2023/08/17 03:39:25;;;;;;;;;;;;;;;28.38;39.21;100591.19;5040792;28;1334;-35
2023/08/17 03:41:51;;;;;;;;;;;;;;;28.32;40.72;100595.50;5058541;28;1191;-34
2023/08/17 03:44:17;;;;;;;;;;;;;;;28.22;40.01;100598.53;5040618;28;1898;-35
2023/08/17 03:46:42;;;;;;;;;;;;;;;28.44;39.52;100601.25;5047906;28;1055;-33
2023/08/17 03:49:08;;;;;;;;;;;;;;;28.52;39.09;100600.28;5058234;28;1071;-35
2023/08/17 03:51:35;;;;;;;;;;;;;;;28.50;39.48;100604.19;5039637;28;1381;-34
2023/08/17 03:54:01;;;;;;;;;;;;;;;27.67;41.03;100609.81;5058511;28;1204;-34
2023/08/17 03:56:26;;;;;;;;;;;;;;;22.89;54.89;100600.97;5047073;28;1296;-38
2023/08/17 03:58:52;;;;;;;;;;;;;;;21.98;58.16;100618.78;5052873;28;1166;-36
2023/08/17 04:01:18;;;;;;;;;;;;;;;21.33;59.19;100611.63;5027787;28;1237;-37
2023/08/17 04:03:43;;;;;;;;;;;;;;;21.19;58.46;100612.97;5060347;28;1913;-37
2023/08/17 04:06:10;;;;;;;;;;;;;;;20.86;58.72;100611.47;5077999;28;1074;-39
2023/08/17 04:08:38;;;;;;;;;;;;;;;20.73;58.35;100619.78;5077937;28;1162;-39
2023/08/17 04:11:04;;;;;;;;;;;;;;;20.82;57.69;100618.06;5067290;28;1111;-40
2023/08/17 04:13:30;;;;;;;;;;;;;;;20.67;58.39;100620.34;5048346;28;1110;-38
2023/08/17 04:15:56;;;;;;;;;;;;;;;22.81;48.35;100617.81;5059944;28;1277;-39
2023/08/17 04:18:21;;;;;;;;;;;;;;;21.51;55.21;100622.38;5041498;28;1773;-37
2023/08/17 04:20:47;;;;;;;;;;;;;;;21.63;56.25;100618.53;5051932;28;1412;-36
2023/08/17 04:23:14;;;;;;;;;;;;;;;24.02;47.50;100622.41;5033409;28;1332;-39
2023/08/17 04:25:40;;;;;;;;;;;;;;;22.23;53.95;100624.38;5037086;28;1906;-41
2023/08/17 04:28:06;;;;;;;;;;;;;;;21.58;57.78;100626.16;5056580;28;1106;-39
2023/08/17 04:30:34;;;;;;;;;;;;;;;21.32;58.81;100623.34;5053616;28;1259;-38
2023/08/17 04:33:01;;;;;;;;;;;;;;;22.29;56.88;100628.28;5036771;28;1274;-39
2023/08/17 04:35:27;;;;;;;;;;;;;;;24.64;48.83;100631.06;5061412;28;1144;-38
2023/08/17 04:37:52;;;;;;;;;;;;;;;21.71;56.98;100630.31;5052300;28;1455;-31
2023/08/17 04:40:18;;;;;;;;;;;;;;;24.46;48.18;100626.69;5047029;28;2714;-35
2023/08/17 04:42:44;;;;;;;;;;;;;;;22.14;54.31;100627.97;5067980;28;1148;-39
2023/08/17 04:45:10;;;;;;;;;;;;;;;22.82;55.03;100630.25;5058973;28;1984;-41
2023/08/17 04:47:39;;;;;;;;;;;;;;;25.03;46.87;100635.72;5047724;28;1122;-39
2023/08/17 04:50:05;;;;;;;;;;;;;;;21.47;56.35;100631.72;5042339;28;1267;-38
2023/08/17 04:52:30;;;;;;;;;;;;;;;23.80;50.14;100639.00;5044614;28;954;-39
2023/08/17 04:54:56;;;;;;;;;;;;;;;23.04;50.90;100634.22;5067176;28;1031;-39
2023/08/17 04:57:21;;;;;;;;;;;;;;;21.85;57.07;100627.19;5058664;28;1233;-38
2023/08/17 04:59:47;;;;;;;;;;;;;;;24.70;48.37;100633.91;5051775;28;1189;-38
2023/08/17 05:02:14;;;;;;;;;;;;;;;25.48;45.02;100623.63;5040917;28;1363;-39
2023/08/17 05:04:40;;;;;;;;;;;;;;;26.52;41.79;100622.53;5058348;28;1894;-37
2023/08/17 05:07:05;;;;;;;;;;;;;;;26.77;40.37;100614.22;5076907;28;1155;-41
2023/08/17 05:09:31;;;;;;;;;;;;;;;26.94;39.81;100621.28;5046364;28;2416;-38
2023/08/17 05:11:57;;;;;;;;;;;;;;;27.16;39.64;100616.03;5041052;28;1127;-38
2023/08/17 05:14:23;;;;;;;;;;;;;;;27.50;38.83;100614.59;5054091;28;1150;-37
2023/08/17 05:16:49;;;;;;;;;;;;;;;27.62;38.13;100618.50;5067346;28;1043;-38
2023/08/17 05:19:14;;;;;;;;;;;;;;;27.74;38.55;100613.44;5040573;28;1311;-39
2023/08/17 05:21:40;;;;;;;;;;;;;;;27.76;38.15;100624.06;5058493;28;1118;-37
2023/08/17 05:24:07;;;;;;;;;;;;;;;27.78;38.76;100610.38;5050245;28;1906;-39
2023/08/17 05:26:33;;;;;;;;;;;;;;;27.94;38.54;100618.25;5065796;28;1047;-37
2023/08/17 05:28:59;;;;;;;;;;;;;;;27.97;38.59;100617.88;5057775;28;1246;-39
2023/08/17 05:31:25;;;;;;;;;;;;;;;27.98;38.59;100595.19;5058251;28;1216;-38
2023/08/17 05:33:52;;;;;;;;;;;;;;;28.19;38.31;100614.31;5057916;28;1131;-36
2023/08/17 05:36:18;;;;;;;;;;;;;;;28.26;38.35;100617.91;5049058;28;1378;-39
2023/08/17 05:38:46;;;;;;;;;;;;;;;28.22;38.97;100620.19;5055698;28;1917;-37
2023/08/17 05:41:12;;;;;;;;;;;;;;;28.27;39.18;100622.31;5047789;28;1182;-34
2023/08/17 05:43:38;;;;;;;;;;;;;;;27.85;39.17;100520.22;5073326;28;1906;-37
2023/08/17 05:46:03;;;;;;;;;;;;;;;28.60;37.88;100629.88;5054122;28;1537;-38
2023/08/17 05:48:29;;;;;;;;;;;;;;;28.67;38.38;100624.53;5044864;28;1175;-35
2023/08/17 05:50:58;;;;;;;;;;;;;;;28.70;39.54;100620.59;5065084;28;1108;-34
2023/08/17 05:53:23;;;;;;;;;;;;;;;28.96;39.76;100628.03;5074906;28;1182;-40
2023/08/17 05:55:49;;;;;;;;;;;;;;;28.84;40.60;100627.75;5076114;28;1103;-40
2023/08/17 05:58:14;;;;;;;;;;;;;;;29.02;40.16;100621.03;5075709;28;1151;-35
2023/08/17 06:00:40;;;;;;;;;;;;;;;29.18;39.52;100622.56;5049273;28;1024;-36
2023/08/17 06:03:05;;;;;;;;;;;;;;;29.23;39.91;100627.38;5055713;28;1107;-37
2023/08/17 06:05:31;;;;;;;;;;;;;;;29.21;40.29;100621.34;5073087;28;1906;-34
2023/08/17 06:07:56;;;;;;;;;;;;;;;29.23;40.26;100621.16;5076029;28;1055;-35
2023/08/17 06:10:25;;;;;;;;;;;;;;;29.49;40.53;100619.59;5060503;28;2150;-40
2023/08/17 06:12:57;;;;;;;;;;;;;;;29.58;39.97;100610.22;5060798;28;1300;-40
2023/08/17 06:15:22;;;;;;;;;;;;;;;29.54;40.32;100626.09;5057114;28;1321;-40
2023/08/17 06:17:49;;;;;;;;;;;;;;;29.68;39.80;100618.84;5061663;28;1381;-37
2023/08/17 06:20:15;;;;;;;;;;;;;;;29.57;40.38;100614.84;5069676;28;1246;-39
2023/08/17 06:22:40;;;;;;;;;;;;;;;29.72;39.96;100610.31;5076026;28;1313;-38
2023/08/17 06:25:07;;;;;;;;;;;;;;;29.85;40.34;100617.63;5062803;28;1906;-40
2023/08/17 06:27:33;;;;;;;;;;;;;;;29.76;41.14;100611.59;5053565;28;1357;-35
2023/08/17 06:29:59;;;;;;;;;;;;;;;29.90;40.34;100621.41;5065306;28;1348;-34
2023/08/17 06:32:24;;;;;;;;;;;;;;;30.06;40.00;100628.31;5055540;28;1203;-33
2023/08/17 06:34:50;;;;;;;;;;;;;;;30.00;40.40;100628.31;5071002;28;1041;-33
2023/08/17 06:37:15;;;;;;;;;;;;;;;29.78;40.93;100633.91;5067008;28;1486;-34
2023/08/17 06:39:41;;;;;;;;;;;;;;;29.68;41.12;100626.13;5061236;28;2316;-39
2023/08/17 06:42:06;;;;;;;;;;;;;;;29.61;40.85;100617.16;5067734;28;1638;-40
2023/08/17 06:44:32;;;;;;;;;;;;;;;29.53;40.63;100618.97;5074683;28;1903;-38
2023/08/17 06:46:58;;;;;;;;;;;;;;;29.67;40.00;100624.47;5071602;28;1247;-39
2023/08/17 06:49:24;;;;;;;;;;;;;;;29.70;40.26;100616.78;5070361;28;1227;-37
2023/08/17 06:51:50;;;;;;;;;;;;;;;29.67;40.83;100619.91;5074282;28;1222;-34
2023/08/17 06:54:15;;;;;;;;;;;;;;;29.64;40.95;100614.06;5074785;28;1424;-40
2023/08/17 06:56:40;;;;;;;;;;;;;;;29.77;40.54;100622.22;5064566;28;1324;-37
2023/08/17 06:59:06;;;;;;;;;;;;;;;29.73;40.28;100629.09;5074680;28;1226;-35
2023/08/17 07:01:32;;;;;;;;;;;;;;;29.81;40.80;100619.94;5071497;28;1286;-38
2023/08/17 07:03:58;;;;;;;;;;;;;;;29.87;40.01;100626.41;5069920;28;2002;-40
2023/08/17 07:06:24;;;;;;;;;;;;;;;29.86;40.14;100636.44;5077843;28;1403;-39
2023/08/17 07:08:49;;;;;;;;;;;;;;;29.74;40.13;100643.47;5071911;28;2337;-37
2023/08/17 07:11:15;;;;;;;;;;;;;;;29.51;40.53;100642.72;5078487;28;1341;-38
2023/08/17 07:13:40;;;;;;;;;;;;;;;29.47;39.86;100641.47;5064753;28;911;-37
2023/08/17 07:16:06;;;;;;;;;;;;;;;29.61;40.44;100647.84;5063383;28;1130;-39
2023/08/17 07:18:31;;;;;;;;;;;;;;;29.72;40.33;100646.41;5076733;28;1241;-41
2023/08/17 07:20:57;;;;;;;;;;;;;;;29.77;39.70;100649.34;5078730;28;1031;-33
2023/08/17 07:23:22;;;;;;;;;;;;;;;29.89;39.31;100646.88;5067657;28;1235;-35
2023/08/17 07:25:48;;;;;;;;;;;;;;;29.97;39.19;100642.28;5072099;28;1986;-36
2023/08/17 07:28:15;;;;;;;;;;;;;;;29.92;39.72;100646.47;5078158;28;1091;-38
2023/08/17 07:30:41;;;;;;;;;;;;;;;30.14;39.58;100650.88;5066224;28;957;-39
2023/08/17 07:33:06;;;;;;;;;;;;;;;30.24;38.93;100639.66;5078517;28;1388;-37
2023/08/17 07:35:32;;;;;;;;;;;;;;;30.26;39.28;100651.97;5078536;28;1332;-35
2023/08/17 07:37:57;;;;;;;;;;;;;;;30.36;39.47;100651.56;5066789;28;1039;-34
2023/08/17 07:40:23;;;;;;;;;;;;;;;30.23;39.52;100651.56;5069098;28;2636;-38
2023/08/17 07:42:48;;;;;;;;;;;;;;;30.31;38.78;100662.22;5076896;28;1301;-38
2023/08/17 07:45:14;;;;;;;;;;;;;;;30.28;38.82;100651.78;5077218;28;1906;-38
2023/08/17 07:47:40;;;;;;;;;;;;;;;30.27;39.33;100664.50;5078030;28;1133;-40
2023/08/17 07:50:06;;;;;;;;;;;;;;;30.33;39.15;100651.16;5070738;28;1159;-37
2023/08/17 07:52:32;;;;;;;;;;;;;;;30.40;39.10;100654.69;5078192;28;1316;-34
2023/08/17 07:54:57;;;;;;;;;;;;;;;26.74;47.77;100648.81;5074628;28;1127;-38
2023/08/17 07:57:23;;;;;;;;;;;;;;;23.22;48.83;100644.09;5057878;28;1517;-34
2023/08/17 07:59:48;;;;;;;;;;;;;;;22.47;52.97;100638.16;5070370;28;1282;-36
2023/08/17 08:02:14;;;;;;;;;;;;;;;22.24;54.90;100631.41;5062938;28;904;-36
2023/08/17 08:04:39;;;;;;;;;;;;;;;22.20;56.62;100639.91;5064567;28;1910;-30
2023/08/17 08:07:05;;;;;;;;;;;;;;;22.16;57.50;100628.66;5077477;28;985;-37
2023/08/17 08:09:30;;;;;;;;;;;;;;;23.69;56.22;100637.44;5065514;28;1833;-37
2023/08/17 08:11:56;;;;;;;;;;;;;;;26.52;45.30;100641.41;5077732;28;1028;-33
2023/08/17 08:14:21;;;;;;;;;;;;;;;25.43;51.62;100643.00;5061319;28;1070;-31
2023/08/17 08:16:47;;;;;;;;;;;;;;;27.43;44.62;100646.91;5058251;28;1163;-37
2023/08/17 08:19:12;;;;;;;;;;;;;;;24.91;50.64;100642.47;5061315;28;1064;-35
2023/08/17 08:21:38;;;;;;;;;;;;;;;24.26;51.64;100639.59;5076945;28;1095;-35
2023/08/17 08:24:04;;;;;;;;;;;;;;;25.89;49.71;100647.69;5075931;28;1918;-34
2023/08/17 08:26:29;;;;;;;;;;;;;;;26.52;47.23;100638.72;5054557;28;997;-34
2023/08/17 08:28:54;;;;;;;;;;;;;;;24.69;50.99;100639.47;5060877;28;1220;-33
2023/08/17 08:31:20;;;;;;;;;;;;;;;24.26;51.72;100639.59;5067260;28;889;-36
2023/08/17 08:33:46;;;;;;;;;;;;;;;24.01;51.92;100637.69;5059446;28;1311;-38
2023/08/17 08:36:11;;;;;;;;;;;;;;;23.37;51.39;100534.28;5048670;28;1251;-33
2023/08/17 08:38:37;;;;;;;;;;;;;;;26.20;47.72;100635.22;5051408;28;1905;-34
2023/08/17 08:41:02;;;;;;;;;;;;;;;26.22;47.04;100624.25;5048513;28;1112;-34
2023/08/17 08:43:28;;;;;;;;;;;;;;;24.72;49.86;100627.50;5054703;28;1057;-36
2023/08/17 08:45:54;;;;;;;;;;;;;;;24.18;50.81;100640.44;5055964;28;1898;-33
2023/08/17 08:48:20;;;;;;;;;;;;;;;24.03;51.50;100637.53;5066796;28;1193;-33
2023/08/17 08:50:46;;;;;;;;;;;;;;;26.44;47.07;100628.00;5041754;28;1081;-32
2023/08/17 08:53:15;;;;;;;;;;;;;;;25.87;47.41;100621.97;5056773;28;1090;-34
2023/08/17 08:55:49;;;;;;;;;;;;;;;24.45;50.38;100630.38;5053649;28;1476;-36
2023/08/17 08:58:17;;;;;;;;;;;;;;;24.13;51.17;100618.56;5053972;28;1487;-37
2023/08/17 09:00:45;;;;;;;;;;;;;;;23.96;51.08;100631.97;5050887;28;1321;-34
2023/08/17 09:03:10;;;;;;;;;;;;;;;23.78;51.55;100637.44;5053333;28;1143;-34
2023/08/17 09:05:36;;;;;;;;;;;;;;;25.85;48.73;100642.84;5062946;28;1981;-34
2023/08/17 09:08:02;;;;;;;;;;;;;;;26.08;46.86;100647.41;5043351;28;1160;-36
2023/08/17 09:10:27;;;;;;;;;;;;;;;24.19;49.08;100634.06;5068145;28;2728;-39
2023/08/17 09:12:53;;;;;;;;;;;;;;;23.56;50.34;100627.16;5050683;28;1069;-34
2023/08/17 09:15:19;;;;;;;;;;;;;;;23.52;50.74;100633.84;5062272;28;1075;-39
2023/08/17 09:17:44;;;;;;;;;;;;;;;23.44;51.11;100644.56;5055676;28;1060;-38
2023/08/17 09:20:10;;;;;;;;;;;;;;;23.39;51.40;100634.25;5074201;28;1071;-38
2023/08/17 09:22:36;;;;;;;;;;;;;;;23.42;51.51;100623.22;5075513;28;1154;-36
2023/08/17 09:25:01;;;;;;;;;;;;;;;24.91;49.13;100634.41;5052746;28;1961;-34
2023/08/17 09:27:27;;;;;;;;;;;;;;;26.31;45.16;100636.66;5063188;28;1024;-37
2023/08/17 09:29:52;;;;;;;;;;;;;;;24.16;49.76;100642.41;5067477;28;1306;-37
2023/08/17 09:32:18;;;;;;;;;;;;;;;25.40;47.97;100641.53;5066160;28;1386;-40
2023/08/17 09:34:43;;;;;;;;;;;;;;;26.40;46.31;100646.41;5065290;28;1335;-36
2023/08/17 09:37:09;;;;;;;;;;;;;;;24.35;50.08;100635.94;5070909;28;993;-35
2023/08/17 09:39:34;;;;;;;;;;;;;;;26.41;45.76;100634.59;5052137;28;1860;-36
2023/08/17 09:42:00;;;;;;;;;;;;;;;24.94;48.41;100547.97;5076654;28;1233;-37
2023/08/17 09:44:26;;;;;;;;;;;;;;;24.18;50.88;100640.44;5076285;28;1906;-35
2023/08/17 09:46:51;;;;;;;;;;;;;;;23.80;52.81;100638.13;5063391;28;1052;-33
2023/08/17 09:49:17;;;;;;;;;;;;;;;26.21;46.38;100633.38;5075151;28;1151;-35
2023/08/17 09:51:43;;;;;;;;;;;;;;;25.25;48.41;100636.00;5056305;28;1036;-34
2023/08/17 09:54:18;;;;;;;;;;;;;;;24.44;54.79;100642.97;5075492;28;1120;-34
2023/08/17 09:56:43;;;;;;;;;;;;;;;27.20;44.23;100638.91;5049002;28;1279;-32
2023/08/17 09:59:09;;;;;;;;;;;;;;;25.25;49.00;100638.72;5056107;28;1460;-35
2023/08/17 10:01:34;;;;;;;;;;;;;;;24.31;51.24;100638.09;5070963;28;1024;-34
2023/08/17 10:04:00;;;;;;;;;;;;;;;23.98;51.60;100638.03;5038739;28;1902;-33
2023/08/17 10:06:25;;;;;;;;;;;;;;;25.25;51.06;100633.31;5055570;28;1251;-38
2023/08/17 10:08:51;;;;;;;;;;;;;;;26.96;45.95;100638.97;5057968;28;1130;-39
2023/08/17 10:11:18;;;;;;;;;;;;;;;24.61;49.93;100636.78;5057672;28;1163;-38
2023/08/17 10:13:56;;;;;;;;;;;;;;;24.02;50.66;100639.38;5059485;28;1313;-36
2023/08/17 10:16:26;;;;;;;;;;;;;;;24.76;52.15;100626.16;5063762;28;1337;-35
2023/08/17 10:18:56;;;;;;;;;;;;;;;27.16;43.44;100632.22;5050688;28;1033;-37
2023/08/17 10:21:23;;;;;;;;;;;;;;;24.57;49.30;100634.41;5058079;28;1380;-34
2023/08/17 10:23:48;;;;;;;;;;;;;;;23.91;51.09;100627.09;5052623;28;1961;-31
2023/08/17 10:26:14;;;;;;;;;;;;;;;26.19;46.62;100632.72;5041962;28;1250;-37
2023/08/17 10:28:39;;;;;;;;;;;;;;;25.73;47.21;100629.78;5042844;28;1431;-36
2023/08/17 10:31:05;;;;;;;;;;;;;;;24.28;50.12;100629.53;5020308;28;1272;-38
2023/08/17 10:33:31;;;;;;;;;;;;;;;23.83;51.00;100609.13;5043386;28;1242;-36
2023/08/17 10:35:57;;;;;;;;;;;;;;;24.99;51.23;100620.09;5056580;28;1428;-35
2023/08/17 10:38:22;;;;;;;;;;;;;;;26.84;45.63;100624.25;5069723;28;1112;-35
2023/08/17 10:41:07;;;;;;;;;;;;;;;24.39;49.50;100623.00;5065797;28;1321;-35
2023/08/17 10:43:34;;;;;;;;;;;;;;;25.17;49.96;100623.41;5073336;28;1124;-38
2023/08/17 10:46:14;;;;;;;;;;;;;;;27.16;44.66;100616.84;5073464;28;1967;-36
2023/08/17 10:48:39;;;;;;;;;;;;;;;24.48;49.28;100627.34;5075321;28;1380;-39
2023/08/17 10:51:05;;;;;;;;;;;;;;;26.11;46.72;100623.66;5053986;28;1403;-36
2023/08/17 10:53:33;;;;;;;;;;;;;;;26.73;45.46;100622.84;5075499;28;1294;-35
2023/08/17 10:55:59;;;;;;;;;;;;;;;24.74;49.60;100625.50;5047280;28;1377;-37
2023/08/17 10:58:25;;;;;;;;;;;;;;;26.68;46.33;100625.25;5074130;28;1154;-40
2023/08/17 11:00:54;;;;;;;;;;;;;;;26.39;47.36;100628.53;5073722;28;1294;-40
2023/08/17 11:03:20;;;;;;;;;;;;;;;24.88;51.24;100611.34;5069245;28;1317;-38
2023/08/17 11:05:47;;;;;;;;;;;;;;;26.97;44.98;100599.31;5071474;28;1906;-40
2023/08/17 11:08:23;;;;;;;;;;;;;;;25.76;48.31;100613.25;5065380;28;1254;-36
2023/08/17 11:11:09;;;;;;;;;;;;;;;25.09;54.46;100615.34;5061240;28;1270;-37
2023/08/17 11:13:35;;;;;;;;;;;;;;;27.74;43.94;100616.13;5052415;28;1485;-37
2023/08/17 11:16:01;;;;;;;;;;;;;;;25.25;49.84;100622.56;5060271;28;1119;-37
2023/08/17 11:18:26;;;;;;;;;;;;;;;24.88;50.48;100619.41;5068024;28;1352;-37
2023/08/17 11:20:52;;;;;;;;;;;;;;;25.74;49.90;100620.66;5073746;28;1211;-38
2023/08/17 11:23:18;;;;;;;;;;;;;;;27.65;45.28;100624.53;5079502;28;1138;-38
2023/08/17 11:25:43;;;;;;;;;;;;;;;24.88;49.68;100618.56;5059324;28;1890;-37
2023/08/17 11:28:09;;;;;;;;;;;;;;;24.01;51.21;100621.56;5065117;28;1032;-35
2023/08/17 11:30:35;;;;;;;;;;;;;;;23.68;51.76;100613.41;5078351;28;1063;-38
2023/08/17 11:33:01;;;;;;;;;;;;;;;23.67;54.66;100619.81;5077905;28;1080;-37
2023/08/17 11:35:26;;;;;;;;;;;;;;;26.40;46.93;100622.13;5078684;28;1466;-38
2023/08/17 11:37:52;;;;;;;;;;;;;;;24.97;49.12;100620.28;5078850;28;1126;-37
2023/08/17 11:40:17;;;;;;;;;;;;;;;24.02;50.85;100620.56;5060443;28;1049;-36
2023/08/17 11:42:43;;;;;;;;;;;;;;;25.74;49.05;100620.66;5072147;28;1128;-37
2023/08/17 11:45:09;;;;;;;;;;;;;;;25.78;47.68;100630.09;5055176;28;1988;-35
2023/08/17 11:47:35;;;;;;;;;;;;;;;24.64;55.12;100620.31;5059938;28;1080;-38
2023/08/17 11:50:01;;;;;;;;;;;;;;;27.18;44.38;100620.19;5053365;28;1176;-38
2023/08/17 11:52:26;;;;;;;;;;;;;;;24.92;49.69;100623.47;5058177;28;1037;-36
2023/08/17 11:54:54;;;;;;;;;;;;;;;26.41;47.49;100629.19;5073816;28;1207;-41
2023/08/17 11:57:20;;;;;;;;;;;;;;;26.34;47.93;100624.72;5056762;28;1216;-36
2023/08/17 11:59:45;;;;;;;;;;;;;;;24.70;52.81;100625.00;5064469;28;1080;-41
2023/08/17 12:02:11;;;;;;;;;;;;;;;26.66;47.60;100622.72;5060661;28;1109;-36
2023/08/17 12:04:37;;;;;;;;;;;;;;;25.67;49.65;100622.41;5058736;28;1965;-35
2023/08/17 12:07:03;;;;;;;;;;;;;;;24.79;55.12;100620.44;5045909;28;851;-36
2023/08/17 12:09:28;;;;;;;;;;;;;;;27.17;46.20;100620.41;5062507;28;1163;-37
2023/08/17 12:11:57;;;;;;;;;;;;;;;25.45;50.22;100616.75;5070293;28;1153;-38
2023/08/17 12:14:23;;;;;;;;;;;;;;;25.18;54.29;100613.47;5072050;28;1242;-34
2023/08/17 12:16:49;;;;;;;;;;;;;;;27.40;45.73;100622.97;5045402;28;1275;-39
2023/08/17 12:19:14;;;;;;;;;;;;;;;25.39;50.28;100620.97;5071062;28;1056;-39
2023/08/17 12:21:40;;;;;;;;;;;;;;;25.16;54.05;100616.34;5063714;28;1158;-38
2023/08/17 12:24:06;;;;;;;;;;;;;;;27.62;44.56;100629.31;5077909;28;1984;-38
2023/08/17 12:26:34;;;;;;;;;;;;;;;25.30;50.28;100619.34;5076513;28;1317;-38
2023/08/17 12:28:59;;;;;;;;;;;;;;;25.41;52.93;100618.09;5056980;28;1140;-39
2023/08/17 12:31:25;;;;;;;;;;;;;;;27.30;45.93;100625.13;5059258;28;1411;-35
2023/08/17 12:33:50;;;;;;;;;;;;;;;24.94;49.17;100623.31;5077490;28;1150;-36
2023/08/17 12:36:17;;;;;;;;;;;;;;;26.28;47.50;100631.63;5076257;28;1317;-36
2023/08/17 12:38:44;;;;;;;;;;;;;;;26.67;46.84;100631.66;5063294;28;1079;-39
2023/08/17 12:41:10;;;;;;;;;;;;;;;24.97;52.76;100628.34;5057679;28;1147;-39
2023/08/17 12:43:37;;;;;;;;;;;;;;;27.31;44.77;100624.13;5071030;28;1146;-39